createdAt,value
2023-03-21T00:01:55.215Z,51321.00
2023-03-21T00:04:24.764Z,51313.03
2023-03-21T00:06:52.672Z,51293.16
2023-03-21T00:09:20.872Z,51277.25
2023-03-21T00:11:48.596Z,51285.19
2023-03-21T00:14:18.702Z,51311.06
2023-03-21T00:16:50.632Z,51281.22
2023-03-21T00:19:20.906Z,51303.09
2023-03-21T00:24:39.512Z,51321.00
2023-03-21T00:27:42.857Z,51299.13
2023-03-21T00:29:55.666Z,51301.09
2023-03-21T00:32:23.052Z,51317.00
2023-03-21T00:35:38.402Z,51313.03
2023-03-21T00:37:37.348Z,51299.13
2023-03-21T00:40:23.151Z,51287.19
2023-03-21T00:42:52.772Z,51303.09
2023-03-21T00:45:22.281Z,51303.09
2023-03-21T00:47:49.794Z,51293.16
2023-03-21T00:50:18.146Z,51317.00
2023-03-21T00:52:45.378Z,51283.22
2023-03-21T00:55:19.353Z,51279.25
2023-03-21T00:57:50.192Z,51303.09
2023-03-21T01:00:20.636Z,51319.00
2023-03-21T01:03:17.499Z,51269.31
2023-03-21T01:06:07.152Z,51303.09
2023-03-21T01:08:51.752Z,51289.19
2023-03-21T01:11:23.597Z,51297.13
2023-03-21T01:13:56.196Z,51281.22
2023-03-21T01:16:27.486Z,51311.06
2023-03-21T01:18:54.747Z,51289.19
2023-03-21T01:21:22.277Z,51281.22
2023-03-21T01:23:49.443Z,51287.19
2023-03-21T01:26:16.970Z,51285.19
2023-03-21T01:28:45.718Z,51283.22
2023-03-21T01:31:16.833Z,51287.19
2023-03-21T01:33:45.003Z,51295.16
2023-03-21T01:36:25.250Z,51315.03
2023-03-21T01:38:57.057Z,51277.25
2023-03-21T01:41:42.559Z,51297.13
2023-03-21T01:44:19.797Z,51287.19
2023-03-21T01:47:09.317Z,51279.25
2023-03-21T01:49:50.131Z,51285.19
2023-03-21T01:52:37.532Z,51295.16
2023-03-21T01:55:13.280Z,51289.19
2023-03-21T01:58:09.532Z,51299.13
2023-03-21T02:00:56.756Z,51305.09
2023-03-21T02:03:38.253Z,51293.16
2023-03-21T02:06:53.031Z,51285.19
2023-03-21T02:09:35.980Z,51303.09
2023-03-21T02:12:06.430Z,51305.09
2023-03-21T02:14:36.632Z,51299.13
2023-03-21T02:17:47.461Z,51277.25
2023-03-21T02:20:22.185Z,51293.16
2023-03-21T02:23:10.257Z,51295.16
2023-03-21T02:26:42.322Z,51275.25
2023-03-21T02:29:45.924Z,51301.09
2023-03-21T02:32:51.547Z,51275.25
2023-03-21T02:36:14.263Z,51277.25
2023-03-21T02:39:11.651Z,51291.16
2023-03-21T02:42:25.636Z,51289.19
2023-03-21T02:45:02.033Z,51275.25
2023-03-21T02:47:41.687Z,51265.31
2023-03-21T02:50:34.834Z,51281.22
2023-03-21T02:53:04.705Z,51317.00
2023-03-21T02:55:33.782Z,51269.31
2023-03-21T02:58:12.719Z,51281.22
2023-03-21T03:00:45.383Z,51261.34
2023-03-21T03:03:27.983Z,51273.28
2023-03-21T03:06:04.467Z,51273.28
2023-03-21T03:09:01.557Z,51281.22
2023-03-21T03:11:34.742Z,51281.22
2023-03-21T03:14:44.196Z,51281.22
2023-03-21T03:18:12.778Z,51285.19
2023-03-21T03:21:19.014Z,51301.09
2023-03-21T03:24:47.224Z,51291.16
2023-03-21T03:27:29.812Z,51285.19
2023-03-21T03:30:01.276Z,51285.19
2023-03-21T03:32:38.534Z,51285.19
2023-03-21T03:35:07.568Z,51313.03
2023-03-21T03:37:37.888Z,51291.16
2023-03-21T03:40:19.403Z,51291.16
2023-03-21T03:43:05.558Z,51257.38
2023-03-21T03:46:04.122Z,51285.19
2023-03-21T03:48:46.392Z,51289.19
2023-03-21T03:51:26.141Z,51297.13
2023-03-21T03:54:30.816Z,51299.13
2023-03-21T03:56:59.303Z,51277.25
2023-03-21T03:59:26.610Z,51261.34
2023-03-21T04:02:11.913Z,51281.22
2023-03-21T04:04:39.584Z,51273.28
2023-03-21T04:07:07.756Z,51277.25
2023-03-21T04:09:44.077Z,51285.19
2023-03-21T04:12:15.388Z,51277.25
2023-03-21T04:14:53.285Z,51297.13
2023-03-21T04:17:22.714Z,51275.25
2023-03-21T04:19:53.792Z,51287.19
2023-03-21T04:22:25.759Z,51305.09
2023-03-21T04:24:53.611Z,51319.00
2023-03-21T04:27:20.856Z,51291.16
2023-03-21T04:30:06.115Z,51269.31
2023-03-21T04:32:56.690Z,51277.25
2023-03-21T04:35:25.753Z,51289.19
2023-03-21T04:37:54.355Z,51283.22
2023-03-21T04:40:21.655Z,51305.09
2023-03-21T04:42:49.298Z,51291.16
2023-03-21T04:45:17.302Z,51297.13
2023-03-21T04:47:46.841Z,51269.31
2023-03-21T04:50:15.921Z,51297.13
2023-03-21T04:52:43.496Z,51295.16
2023-03-21T04:55:11.299Z,51283.22
2023-03-21T04:57:39.602Z,51309.06
2023-03-21T05:00:11.251Z,51285.19
2023-03-21T05:02:39.197Z,51299.13
2023-03-21T05:05:11.334Z,51285.19
2023-03-21T05:07:40.568Z,51295.16
2023-03-21T05:10:11.835Z,51285.19
2023-03-21T05:12:41.417Z,51281.22
2023-03-21T05:15:09.680Z,51289.19
2023-03-21T05:17:38.208Z,51285.19
2023-03-21T05:20:09.232Z,51301.09
2023-03-21T05:22:40.660Z,51279.25
2023-03-21T05:25:13.151Z,51299.13
2023-03-21T05:28:02.995Z,51267.31
2023-03-21T05:30:31.911Z,51273.28
2023-03-21T05:33:01.200Z,51287.19
2023-03-21T05:35:29.541Z,51271.28
2023-03-21T05:37:59.689Z,51299.13
2023-03-21T05:40:30.777Z,51303.09
2023-03-21T05:42:59.245Z,51285.19
2023-03-21T05:45:27.309Z,51275.25
2023-03-21T05:47:56.071Z,51295.16
2023-03-21T05:50:29.545Z,51293.16
2023-03-21T05:53:12.419Z,51301.09
2023-03-21T05:55:40.074Z,51297.13
2023-03-21T05:58:12.764Z,51285.19
2023-03-21T06:00:45.374Z,51283.22
2023-03-21T06:03:26.020Z,51287.19
2023-03-21T06:06:19.381Z,51301.09
2023-03-21T06:08:53.430Z,51293.16
2023-03-21T06:11:33.499Z,51287.19
2023-03-21T06:14:16.754Z,51289.19
2023-03-21T06:16:45.450Z,51301.09
2023-03-21T06:19:13.318Z,51271.28
2023-03-21T06:22:00.819Z,51283.22
2023-03-21T06:24:28.331Z,51299.13
2023-03-21T06:26:56.193Z,51311.06
2023-03-21T06:29:25.970Z,51313.03
2023-03-21T06:31:53.129Z,51311.06
2023-03-21T06:34:21.544Z,51267.31
2023-03-21T06:36:48.704Z,51305.09
2023-03-21T06:39:18.243Z,51295.16
2023-03-21T06:41:46.413Z,51279.25
2023-03-21T06:44:21.789Z,51295.16
2023-03-21T06:46:57.250Z,51287.19
2023-03-21T06:49:24.857Z,51303.09
2023-03-21T06:51:52.035Z,51271.28
2023-03-21T06:54:21.535Z,51293.16
2023-03-21T06:56:58.878Z,51291.16
2023-03-21T06:59:29.922Z,51319.00
2023-03-21T07:02:03.109Z,51287.19
2023-03-21T07:04:32.021Z,51275.25
2023-03-21T07:06:59.071Z,51313.03
2023-03-21T07:09:28.259Z,51287.19
2023-03-21T07:11:59.559Z,51295.16
2023-03-21T07:14:36.731Z,51287.19
2023-03-21T07:17:04.537Z,51305.09
2023-03-21T07:19:32.019Z,51332.91
2023-03-21T07:22:01.419Z,51269.31
2023-03-21T07:24:29.195Z,51281.22
2023-03-21T07:26:56.726Z,51273.28
2023-03-21T07:29:25.005Z,51295.16
2023-03-21T07:31:52.170Z,51295.16
2023-03-21T07:34:22.546Z,51311.06
2023-03-21T07:36:50.955Z,51301.09
2023-03-21T07:39:19.619Z,51301.09
2023-03-21T07:41:46.716Z,51299.13
2023-03-21T07:44:25.416Z,51313.03
2023-03-21T07:47:02.330Z,51293.16
2023-03-21T07:49:29.590Z,51317.00
2023-03-21T07:51:56.760Z,51305.09
2023-03-21T07:54:23.865Z,51301.09
2023-03-21T07:56:50.962Z,51311.06
2023-03-21T07:59:18.042Z,51315.03
2023-03-21T08:01:45.105Z,51336.91
2023-03-21T08:04:12.461Z,51322.97
2023-03-21T08:06:40.391Z,51336.91
2023-03-21T08:09:07.742Z,51305.09
2023-03-21T08:11:34.886Z,51324.97
2023-03-21T08:14:02.290Z,51305.09
2023-03-21T08:16:29.573Z,51338.88
2023-03-21T08:18:56.664Z,51311.06
2023-03-21T08:21:24.057Z,51346.84
2023-03-21T08:23:51.464Z,51313.03
2023-03-21T08:26:19.425Z,51352.78
2023-03-21T08:28:47.124Z,51344.84
2023-03-21T08:31:15.052Z,51321.00
2023-03-21T08:33:42.180Z,51334.91
2023-03-21T08:36:10.420Z,51317.00
2023-03-21T08:38:38.012Z,51332.91
2023-03-21T08:41:05.458Z,51334.91
2023-03-21T08:43:32.698Z,51352.78
2023-03-21T08:45:59.824Z,51313.03
2023-03-21T08:48:26.889Z,51313.03
2023-03-21T08:50:53.999Z,51326.94
2023-03-21T08:53:21.094Z,51291.16
2023-03-21T08:55:49.808Z,51326.94
2023-03-21T08:58:17.851Z,51317.00
2023-03-21T09:00:44.925Z,51354.78
2023-03-21T09:03:12.272Z,51321.00
2023-03-21T09:05:39.848Z,51313.03
2023-03-21T09:08:07.172Z,51344.84
2023-03-21T09:10:34.361Z,51321.00
2023-03-21T09:13:01.486Z,51354.78
2023-03-21T09:15:29.903Z,51340.88
2023-03-21T09:17:58.463Z,51338.88
2023-03-21T09:20:31.183Z,51346.84
2023-03-21T09:22:59.782Z,51356.78
2023-03-21T09:25:31.814Z,51350.81
2023-03-21T09:28:05.277Z,51352.78
2023-03-21T09:30:37.227Z,51326.94
2023-03-21T09:33:19.292Z,51332.91
2023-03-21T09:35:46.503Z,51311.06
2023-03-21T09:38:13.780Z,51307.06
2023-03-21T09:41:12.012Z,51360.75
2023-03-21T09:44:11.982Z,51356.78
2023-03-21T09:46:52.351Z,51338.88
2023-03-21T09:49:25.742Z,51321.00
2023-03-21T09:51:55.726Z,51297.13
2023-03-21T09:54:33.427Z,51356.78
2023-03-21T09:57:15.020Z,51346.84
2023-03-21T09:59:42.934Z,51336.91
2023-03-21T10:02:38.346Z,51332.91
2023-03-21T10:05:32.879Z,51328.94
2023-03-21T10:08:15.672Z,51330.94
2023-03-21T10:10:54.689Z,51362.75
2023-03-21T10:13:36.213Z,51396.53
2023-03-21T10:16:16.007Z,51396.53
2023-03-21T10:18:45.127Z,51378.66
2023-03-21T10:21:47.331Z,51390.56
2023-03-21T10:24:20.676Z,51390.56
2023-03-21T10:26:50.688Z,51384.59
2023-03-21T10:29:23.026Z,51352.78
2023-03-21T10:31:52.044Z,51366.72
2023-03-21T10:37:25.231Z,51386.59
2023-03-21T10:39:55.006Z,51382.63
2023-03-21T10:42:26.578Z,51392.56
2023-03-21T10:44:57.572Z,51422.38
2023-03-21T10:47:34.733Z,51422.38
2023-03-21T10:50:16.474Z,51402.50
2023-03-21T10:52:50.802Z,51420.41
2023-03-21T10:55:29.456Z,51416.41
2023-03-21T10:58:18.933Z,51428.34
2023-03-21T11:00:47.716Z,51414.44
2023-03-21T11:03:32.340Z,51406.47
2023-03-21T11:06:08.537Z,51404.50
2023-03-21T11:08:51.747Z,51454.19
2023-03-21T11:11:29.317Z,51384.59
2023-03-21T11:14:07.129Z,51396.53
2023-03-21T11:16:42.789Z,51424.38
2023-03-21T11:19:17.702Z,51414.44
2023-03-21T11:21:45.381Z,51376.66
2023-03-21T11:24:18.771Z,51434.31
2023-03-21T11:26:51.361Z,51408.47
2023-03-21T11:29:48.181Z,51412.44
2023-03-21T11:32:37.989Z,51436.28
2023-03-21T11:35:20.797Z,51442.25
2023-03-21T11:37:57.080Z,51452.19
2023-03-21T11:40:36.432Z,51478.03
2023-03-21T11:43:32.589Z,51480.03
2023-03-21T11:46:04.901Z,51482.03
2023-03-21T11:48:44.800Z,51484.00
2023-03-21T11:51:38.999Z,51472.09
2023-03-21T11:54:22.375Z,51452.19
2023-03-21T11:56:54.090Z,51462.16
2023-03-21T11:59:32.871Z,51458.16
2023-03-21T12:02:56.415Z,51464.13
2023-03-21T12:05:41.472Z,51454.19
2023-03-21T12:08:17.454Z,51452.19
2023-03-21T12:11:26.079Z,51456.19
2023-03-21T12:14:11.565Z,51491.97
2023-03-21T12:17:02.866Z,51482.03
2023-03-21T12:20:12.063Z,51468.09
2023-03-21T12:23:07.249Z,51472.09
2023-03-21T12:26:05.877Z,51486.00
2023-03-21T12:29:00.423Z,51484.00
2023-03-21T12:32:00.886Z,51509.84
2023-03-21T12:34:56.599Z,51478.03
2023-03-21T12:37:45.271Z,51478.03
2023-03-21T12:40:39.300Z,51488.00
2023-03-21T12:43:28.455Z,51476.06
2023-03-21T12:46:05.871Z,51476.06
2023-03-21T12:48:48.449Z,51478.03
2023-03-21T12:51:20.277Z,51501.91
2023-03-21T12:54:08.140Z,51448.22
2023-03-21T12:56:49.579Z,51466.13
2023-03-21T12:59:36.104Z,51480.03
2023-03-21T13:02:22.810Z,51484.00
2023-03-21T13:05:06.050Z,51476.06
2023-03-21T13:07:42.049Z,51521.78
2023-03-21T13:10:23.570Z,51521.78
2023-03-21T13:13:13.456Z,51495.94
2023-03-21T13:16:01.280Z,51511.84
2023-03-21T13:18:43.258Z,51509.84
2023-03-21T13:21:40.278Z,51541.66
2023-03-21T13:24:32.583Z,51527.75
2023-03-21T13:27:07.988Z,51539.69
2023-03-21T13:29:46.883Z,51543.66
2023-03-21T13:32:38.617Z,51577.47
2023-03-21T13:35:32.740Z,51533.72
2023-03-21T13:38:17.297Z,51543.66
2023-03-21T13:40:57.238Z,51515.81
2023-03-21T13:43:51.738Z,51543.66
2023-03-21T13:46:40.624Z,51507.88
2023-03-21T13:49:38.442Z,51559.56
2023-03-21T13:52:12.195Z,51579.44
2023-03-21T13:54:39.244Z,51535.69
2023-03-21T13:57:07.707Z,51553.59
2023-03-21T13:59:45.271Z,51547.63
2023-03-21T14:02:12.844Z,51609.28
2023-03-21T14:04:53.906Z,51573.47
2023-03-21T14:07:34.378Z,51569.50
2023-03-21T14:10:14.091Z,51553.59
2023-03-21T14:12:43.954Z,51555.59
2023-03-21T14:15:27.708Z,51545.66
2023-03-21T14:18:00.083Z,51579.44
2023-03-21T14:20:38.663Z,51517.81
2023-03-21T14:23:07.992Z,51551.63
2023-03-21T14:25:46.709Z,51513.84
2023-03-21T14:28:25.248Z,51529.75
2023-03-21T14:30:59.968Z,51555.59
2023-03-21T14:33:44.312Z,51525.75
2023-03-21T14:36:18.138Z,51535.69
2023-03-21T14:38:58.554Z,51509.84
2023-03-21T14:41:29.493Z,51515.81
2023-03-21T14:44:17.645Z,51525.75
2023-03-21T14:46:49.614Z,51509.84
2023-03-21T14:49:27.849Z,51515.81
2023-03-21T14:51:59.439Z,51515.81
2023-03-21T14:54:32.815Z,51503.91
2023-03-21T14:57:03.592Z,51472.09
2023-03-21T14:59:36.531Z,51523.78
2023-03-21T15:02:14.832Z,51527.75
2023-03-21T15:04:52.225Z,51521.78
2023-03-21T15:07:34.787Z,51507.88
2023-03-21T15:10:17.876Z,51472.09
2023-03-21T15:12:58.731Z,51462.16
2023-03-21T15:15:29.987Z,51440.28
2023-03-21T15:18:08.979Z,51468.09
2023-03-21T15:20:38.723Z,51452.19
2023-03-21T15:23:16.275Z,51474.06
2023-03-21T15:25:43.719Z,51442.25
2023-03-21T15:28:14.672Z,51474.06
2023-03-21T15:30:52.383Z,51486.00
2023-03-21T15:33:20.639Z,51495.94
2023-03-21T15:35:55.676Z,51460.16
2023-03-21T15:38:36.390Z,51474.06
2023-03-21T15:41:26.260Z,51482.03
2023-03-21T15:44:02.654Z,51456.19
2023-03-21T15:46:50.893Z,51430.34
2023-03-21T15:49:40.264Z,51440.28
2023-03-21T15:52:14.335Z,51454.19
2023-03-21T15:54:55.756Z,51450.22
2023-03-21T15:57:29.948Z,51476.06
2023-03-21T16:00:12.000Z,51486.00
2023-03-21T16:02:42.305Z,51488.00
2023-03-21T16:05:28.956Z,51489.97
2023-03-21T16:08:23.647Z,51446.25
2023-03-21T16:10:50.935Z,51499.91
2023-03-21T16:13:18.159Z,51484.00
2023-03-21T16:15:46.975Z,51468.09
2023-03-21T16:18:18.091Z,51450.22
2023-03-21T16:20:47.157Z,51458.16
2023-03-21T16:23:15.898Z,51452.19
2023-03-21T16:25:44.440Z,51432.31
2023-03-21T16:28:16.592Z,51428.34
2023-03-21T16:30:44.578Z,51424.38
2023-03-21T16:33:12.981Z,51436.28
2023-03-21T16:35:40.480Z,51424.38
2023-03-21T16:38:08.005Z,51422.38
2023-03-21T16:40:40.128Z,51408.47
2023-03-21T16:43:08.013Z,51400.50
2023-03-21T16:45:35.930Z,51422.38
2023-03-21T16:48:04.156Z,51402.50
2023-03-21T16:50:36.219Z,51386.59
2023-03-21T16:53:03.910Z,51404.50
2023-03-21T16:55:33.629Z,51402.50
2023-03-21T16:58:01.677Z,51422.38
2023-03-21T17:00:31.354Z,51380.63
2023-03-21T17:03:02.593Z,51416.41
2023-03-21T17:05:33.016Z,51392.56
2023-03-21T17:08:04.637Z,51400.50
2023-03-21T17:10:35.557Z,51392.56
2023-03-21T17:13:02.616Z,51430.34
2023-03-21T17:15:29.799Z,51432.31
2023-03-21T17:17:56.875Z,51402.50
2023-03-21T17:20:31.636Z,51392.56
2023-03-21T17:22:59.379Z,51388.59
2023-03-21T17:25:27.162Z,51398.53
2023-03-21T17:27:54.515Z,51400.50
2023-03-21T17:30:26.242Z,51404.50
2023-03-21T17:32:54.727Z,51400.50
2023-03-21T17:35:23.485Z,51386.59
2023-03-21T17:37:51.776Z,51388.59
2023-03-21T17:40:34.550Z,51372.69
2023-03-21T17:43:01.635Z,51386.59
2023-03-21T17:45:29.721Z,51398.53
2023-03-21T17:47:56.817Z,51396.53
2023-03-21T17:50:27.545Z,51402.50
2023-03-21T17:52:57.401Z,51380.63
2023-03-21T17:55:24.897Z,51406.47
2023-03-21T17:57:52.140Z,51398.53
2023-03-21T18:00:27.449Z,51414.44
2023-03-21T18:02:54.771Z,51392.56
2023-03-21T18:05:22.947Z,51394.53
2023-03-21T18:08:09.639Z,51364.72
2023-03-21T18:10:38.080Z,51412.44
2023-03-21T18:13:05.470Z,51378.66
2023-03-21T18:15:32.914Z,51386.59
2023-03-21T18:17:59.988Z,51382.63
2023-03-21T18:20:49.962Z,51392.56
2023-03-21T18:23:15.988Z,51380.63
2023-03-21T18:25:43.417Z,51370.69
2023-03-21T18:28:12.496Z,51388.59
2023-03-21T18:31:07.103Z,51386.59
2023-03-21T18:33:28.654Z,51386.59
2023-03-21T18:35:59.990Z,51376.66
2023-03-21T18:38:28.534Z,51364.72
2023-03-21T18:40:56.765Z,51388.59
2023-03-21T18:44:01.014Z,51404.50
2023-03-21T18:46:12.685Z,51356.78
2023-03-21T18:48:39.839Z,51384.59
2023-03-21T18:51:07.191Z,51386.59
2023-03-21T18:53:34.380Z,51404.50
2023-03-21T18:56:02.081Z,51370.69
2023-03-21T18:58:29.467Z,51384.59
2023-03-21T19:00:59.929Z,51382.63
2023-03-21T19:03:36.726Z,51368.69
2023-03-21T19:06:06.470Z,51396.53
2023-03-21T19:08:36.954Z,51372.69
2023-03-21T19:11:06.591Z,51354.78
2023-03-21T19:13:34.484Z,51350.81
2023-03-21T19:16:03.126Z,51362.75
2023-03-21T19:18:53.119Z,51352.78
2023-03-21T19:21:21.907Z,51354.78
2023-03-21T19:24:22.900Z,51370.69
2023-03-21T19:26:36.762Z,51374.66
2023-03-21T19:29:03.965Z,51392.56
2023-03-21T19:31:31.503Z,51346.84
2023-03-21T19:33:59.019Z,51376.66
2023-03-21T19:36:26.709Z,51360.75
2023-03-21T19:38:53.991Z,51364.72
2023-03-21T19:41:21.245Z,51366.72
2023-03-21T19:43:54.564Z,51344.84
2023-03-21T19:46:25.561Z,51360.75
2023-03-21T19:48:56.587Z,51378.66
2023-03-21T19:51:29.411Z,51376.66
2023-03-21T19:54:04.594Z,51372.69
2023-03-21T19:56:32.002Z,51364.72
2023-03-21T19:59:02.554Z,51366.72
2023-03-21T20:01:32.464Z,51380.63
2023-03-21T20:04:00.628Z,51356.78
2023-03-21T20:06:27.828Z,51372.69
2023-03-21T20:09:42.928Z,51360.75
2023-03-21T20:11:43.276Z,51348.81
2023-03-21T20:14:10.578Z,51338.88
2023-03-21T20:16:37.814Z,51404.50
2023-03-21T20:19:08.868Z,51396.53
2023-03-21T20:21:48.105Z,51350.81
2023-03-21T20:24:17.753Z,51382.63
2023-03-21T20:26:46.578Z,51372.69
2023-03-21T20:30:07.609Z,51376.66
2023-03-21T20:32:00.876Z,51364.72
2023-03-21T20:34:28.571Z,51406.47
2023-03-21T20:36:58.155Z,51378.66
2023-03-21T20:39:28.035Z,51374.66
2023-03-21T20:41:58.985Z,51344.84
2023-03-21T20:44:57.347Z,51358.75
2023-03-21T20:47:14.553Z,51392.56
2023-03-21T20:49:41.801Z,51360.75
2023-03-21T20:55:00.194Z,51400.50
2023-03-21T20:57:27.783Z,51344.84
2023-03-21T20:59:55.375Z,51376.66
2023-03-21T21:02:23.680Z,51332.91
2023-03-21T21:05:21.570Z,51370.69
2023-03-21T21:07:41.608Z,51382.63
2023-03-21T21:10:15.374Z,51348.81
2023-03-21T21:12:45.282Z,51358.75
2023-03-21T21:15:16.697Z,51380.63
2023-03-21T21:20:33.798Z,51352.78
2023-03-21T21:23:01.166Z,51356.78
2023-03-21T21:25:32.124Z,51382.63
2023-03-21T21:28:01.610Z,51364.72
2023-03-21T21:30:29.554Z,51364.72
2023-03-21T21:32:59.554Z,51376.66
2023-03-21T21:35:27.105Z,51366.72
2023-03-21T21:37:54.187Z,51354.78
2023-03-21T21:40:23.450Z,51374.66
2023-03-21T21:42:50.853Z,51354.78
2023-03-21T21:45:18.994Z,51372.69
2023-03-21T21:47:46.590Z,51372.69
2023-03-21T21:50:14.331Z,51356.78
2023-03-21T21:52:43.735Z,51360.75
2023-03-21T21:55:13.169Z,51372.69
2023-03-21T21:57:40.954Z,51372.69
2023-03-21T22:00:13.725Z,51372.69
2023-03-21T22:02:41.944Z,51394.53
2023-03-21T22:05:09.627Z,51382.63
2023-03-21T22:07:38.053Z,51396.53
2023-03-21T22:10:06.669Z,51352.78
2023-03-21T22:12:33.989Z,51364.72
2023-03-21T22:15:01.145Z,51372.69
2023-03-21T22:17:28.196Z,51344.84
2023-03-21T22:20:05.178Z,51374.66
2023-03-21T22:22:34.678Z,51354.78
2023-03-21T22:25:03.069Z,51372.69
2023-03-21T22:27:30.565Z,51376.66
2023-03-21T22:29:57.563Z,51380.63
2023-03-21T22:32:24.645Z,51384.59
2023-03-21T22:34:51.640Z,51388.59
2023-03-21T22:37:18.778Z,51356.78
2023-03-21T22:39:45.864Z,51352.78
2023-03-21T22:42:12.946Z,51372.69
2023-03-21T22:44:40.279Z,51366.72
2023-03-21T22:47:10.993Z,51348.81
2023-03-21T22:49:39.201Z,51344.84
2023-03-21T22:52:06.893Z,51374.66
2023-03-21T22:54:34.075Z,51370.69
2023-03-21T22:57:01.283Z,51352.78
2023-03-21T22:59:28.775Z,51346.84
2023-03-21T23:01:56.746Z,51364.72
2023-03-21T23:04:26.657Z,51346.84
2023-03-21T23:06:54.600Z,51356.78
2023-03-21T23:09:21.666Z,51364.72
2023-03-21T23:11:49.753Z,51362.75
2023-03-21T23:14:21.619Z,51384.59
2023-03-21T23:16:52.147Z,51352.78
2023-03-21T23:19:21.519Z,51366.72
2023-03-21T23:21:49.101Z,51406.47
2023-03-21T23:24:16.191Z,51346.84
2023-03-21T23:26:43.221Z,51374.66
2023-03-21T23:29:11.058Z,51368.69
2023-03-21T23:31:38.540Z,51368.69
2023-03-21T23:34:06.192Z,51364.72
2023-03-21T23:36:33.377Z,51354.78
2023-03-21T23:39:00.684Z,51348.81
2023-03-21T23:41:27.721Z,51370.69
2023-03-21T23:43:54.864Z,51350.81
2023-03-21T23:46:22.152Z,51360.75
2023-03-21T23:48:49.374Z,51360.75
2023-03-21T23:51:18.000Z,51368.69
2023-03-21T23:53:46.364Z,51364.72
2023-03-21T23:56:21.059Z,51378.66
2023-03-21T23:58:52.602Z,51368.69
